createdAt,value
2022-09-01T00:00:51.868Z,100894.39
2022-09-01T00:03:24.168Z,100895.13
2022-09-01T00:05:57.499Z,100891.73
2022-09-01T00:08:28.258Z,100887.20
2022-09-01T00:10:59.045Z,100889.17
2022-09-01T00:13:33.130Z,100890.71
2022-09-01T00:16:05.212Z,100890.89
2022-09-01T00:18:35.993Z,100892.27
2022-09-01T00:21:07.299Z,100891.67
2022-09-01T00:23:38.754Z,100891.80
2022-09-01T00:26:09.723Z,100889.65
2022-09-01T00:28:41.535Z,100896.11
2022-09-01T00:31:15.079Z,100893.68
2022-09-01T00:33:46.151Z,100894.66
2022-09-01T00:36:17.744Z,100891.48
2022-09-01T00:38:49.187Z,100890.67
2022-09-01T00:41:22.880Z,100891.92
2022-09-01T00:43:56.227Z,100887.61
2022-09-01T00:46:29.381Z,100891.55
2022-09-01T00:49:05.408Z,100891.84
2022-09-01T00:51:39.054Z,100893.06
2022-09-01T00:54:14.981Z,100886.84
2022-09-01T00:56:49.715Z,100884.65
2022-09-01T00:59:29.583Z,100887.30
2022-09-01T01:02:00.731Z,100886.74
2022-09-01T01:04:32.166Z,100886.09
2022-09-01T01:07:03.550Z,100882.02
2022-09-01T01:09:37.939Z,100881.57
2022-09-01T01:12:11.858Z,100877.82
2022-09-01T01:14:45.966Z,100881.29
2022-09-01T01:17:17.449Z,100879.30
2022-09-01T01:20:09.393Z,100881.60
2022-09-01T01:23:07.753Z,100884.08
2022-09-01T01:25:42.782Z,100876.85
2022-09-01T01:28:18.553Z,100880.96
2022-09-01T01:31:01.586Z,100878.31
2022-09-01T01:33:42.770Z,100876.41
2022-09-01T01:36:17.142Z,100882.89
2022-09-01T01:38:50.418Z,100887.71
2022-09-01T01:41:22.046Z,100886.33
2022-09-01T01:43:53.175Z,100888.15
2022-09-01T01:46:26.043Z,100868.08
2022-09-01T01:48:56.832Z,100887.60
2022-09-01T01:51:28.705Z,100888.84
2022-09-01T01:54:02.292Z,100888.23
2022-09-01T01:56:36.022Z,100890.52
2022-09-01T01:59:08.603Z,100888.27
2022-09-01T02:01:39.819Z,100891.45
2022-09-01T02:04:14.557Z,100890.09
2022-09-01T02:06:47.886Z,100889.85
2022-09-01T02:09:23.355Z,100889.66
2022-09-01T02:11:57.275Z,100884.78
2022-09-01T02:14:28.315Z,100889.53
2022-09-01T02:17:00.647Z,100887.07
2022-09-01T02:19:31.758Z,100889.55
2022-09-01T02:22:02.605Z,100887.64
2022-09-01T02:24:34.134Z,100887.41
2022-09-01T02:27:05.570Z,100885.26
2022-09-01T02:29:40.172Z,100885.10
2022-09-01T02:32:19.451Z,100880.80
2022-09-01T02:34:53.963Z,100881.02
2022-09-01T02:37:25.711Z,100878.90
2022-09-01T02:39:58.153Z,100877.13
2022-09-01T02:42:30.383Z,100874.73
2022-09-01T02:44:59.871Z,100872.08
2022-09-01T02:47:33.649Z,100868.91
2022-09-01T02:50:05.022Z,100867.14
2022-09-01T02:52:38.259Z,100865.91
2022-09-01T02:55:11.824Z,100862.60
2022-09-01T02:57:42.688Z,100867.00
2022-09-01T03:00:22.808Z,100865.31
2022-09-01T03:02:55.143Z,100863.40
2022-09-01T03:05:28.715Z,100863.05
2022-09-01T03:08:03.128Z,100869.03
2022-09-01T03:10:36.623Z,100869.00
2022-09-01T03:13:14.083Z,100871.38
2022-09-01T03:15:45.814Z,100874.27
2022-09-01T03:18:18.578Z,100874.64
2022-09-01T03:20:53.019Z,100875.58
2022-09-01T03:23:25.333Z,100875.64
2022-09-01T03:25:56.756Z,100871.13
2022-09-01T03:28:28.567Z,100869.95
2022-09-01T03:31:00.839Z,100868.16
2022-09-01T03:33:32.554Z,100873.30
2022-09-01T03:36:04.271Z,100854.58
2022-09-01T03:38:35.854Z,100869.44
2022-09-01T03:41:09.488Z,100870.88
2022-09-01T03:43:46.926Z,100865.30
2022-09-01T03:46:21.872Z,100867.71
2022-09-01T03:48:56.096Z,100867.17
2022-09-01T03:51:30.910Z,100868.36
2022-09-01T03:54:02.842Z,100870.34
2022-09-01T03:56:34.049Z,100869.35
2022-09-01T03:59:04.818Z,100869.31
2022-09-01T04:01:41.106Z,100870.30
2022-09-01T04:04:14.976Z,100867.56
2022-09-01T04:06:47.248Z,100870.91
2022-09-01T04:09:18.383Z,100870.63
2022-09-01T04:11:51.621Z,100871.86
2022-09-01T04:14:22.703Z,100870.77
2022-09-01T04:17:11.144Z,100872.01
2022-09-01T04:19:43.078Z,100874.79
2022-09-01T04:22:17.602Z,100874.40
2022-09-01T04:24:48.441Z,100871.33
2022-09-01T04:27:29.840Z,100874.43
2022-09-01T04:30:07.039Z,100879.08
2022-09-01T04:32:42.270Z,100875.99
2022-09-01T04:35:20.251Z,100877.77
2022-09-01T04:37:55.575Z,100876.41
2022-09-01T04:40:27.556Z,100877.31
2022-09-01T04:42:59.027Z,100877.09
2022-09-01T04:45:32.255Z,100880.45
2022-09-01T04:48:03.836Z,100884.19
2022-09-01T04:50:35.412Z,100888.23
2022-09-01T04:53:24.967Z,100885.92
2022-09-01T04:56:04.554Z,100886.10
2022-09-01T04:58:38.830Z,100887.04
2022-09-01T05:01:18.585Z,100887.52
2022-09-01T05:03:56.534Z,100887.74
2022-09-01T05:06:49.276Z,100886.77
2022-09-01T05:09:22.542Z,100887.18
2022-09-01T05:12:11.032Z,100895.24
2022-09-01T05:14:48.884Z,100894.75
2022-09-01T05:17:26.099Z,100896.86
2022-09-01T05:19:58.637Z,100897.38
2022-09-01T05:22:31.371Z,100893.13
2022-09-01T05:25:13.193Z,100889.29
2022-09-01T05:27:49.759Z,100896.81
2022-09-01T05:30:22.254Z,100890.63
2022-09-01T05:32:53.757Z,100887.14
2022-09-01T05:35:32.665Z,100891.38
2022-09-01T05:38:04.625Z,100893.37
2022-09-01T05:40:41.114Z,100893.15
2022-09-01T05:43:14.875Z,100896.08
2022-09-01T05:46:05.648Z,100893.23
2022-09-01T05:48:41.186Z,100896.70
2022-09-01T05:51:42.257Z,100897.09
2022-09-01T05:54:09.810Z,100902.61
2022-09-01T05:56:44.327Z,100896.48
2022-09-01T05:59:25.147Z,100896.98
2022-09-01T06:02:04.275Z,100891.66
2022-09-01T06:04:35.596Z,100896.11
2022-09-01T06:07:09.388Z,100901.87
2022-09-01T06:09:46.313Z,100896.98
2022-09-01T06:12:25.026Z,100899.48
2022-09-01T06:15:00.202Z,100898.20
2022-09-01T06:17:33.915Z,100902.09
2022-09-01T06:20:11.343Z,100904.95
2022-09-01T06:22:45.534Z,100905.64
2022-09-01T06:25:17.404Z,100901.64
2022-09-01T06:27:49.465Z,100905.45
2022-09-01T06:30:24.473Z,100903.08
2022-09-01T06:33:14.592Z,100904.23
2022-09-01T06:35:52.377Z,100902.42
2022-09-01T06:38:25.052Z,100900.62
2022-09-01T06:41:04.314Z,100901.66
2022-09-01T06:43:35.228Z,100903.69
2022-09-01T06:46:06.039Z,100902.40
2022-09-01T06:48:36.922Z,100903.42
2022-09-01T06:51:15.653Z,100910.48
2022-09-01T06:53:56.814Z,100913.32
2022-09-01T06:56:34.027Z,100914.64
2022-09-01T06:59:15.663Z,100911.02
2022-09-01T07:04:59.458Z,100918.69
2022-09-01T07:14:15.417Z,100921.56
2022-09-01T07:16:51.974Z,100923.02
2022-09-01T07:19:48.404Z,100922.77
2022-09-01T07:25:11.728Z,100925.45
2022-09-01T07:27:53.025Z,100928.04
2022-09-01T07:30:26.619Z,100928.47
2022-09-01T07:33:41.585Z,100926.65
2022-09-01T07:38:49.796Z,100923.30
2022-09-01T07:44:45.086Z,100928.96
2022-09-01T07:47:55.458Z,100930.35
2022-09-01T07:53:22.455Z,100926.33
2022-09-01T07:55:56.316Z,100926.24
2022-09-01T07:58:31.417Z,100931.52
2022-09-01T08:01:10.110Z,100932.48
2022-09-01T08:03:42.368Z,100926.55
2022-09-01T08:06:19.423Z,100926.06
2022-09-01T08:08:56.998Z,100930.53
2022-09-01T08:14:21.684Z,100928.44
2022-09-01T08:16:53.668Z,100929.48
2022-09-01T08:19:24.944Z,100926.88
2022-09-01T08:22:11.616Z,100929.94
2022-09-01T08:25:06.243Z,100932.80
2022-09-01T08:27:38.933Z,100938.59
2022-09-01T08:30:13.820Z,100935.46
2022-09-01T08:32:45.278Z,100934.92
2022-09-01T08:35:17.405Z,100933.96
2022-09-01T08:37:48.322Z,100934.29
2022-09-01T08:40:23.584Z,100932.73
2022-09-01T08:43:01.585Z,100935.54
2022-09-01T08:45:37.846Z,100937.14
2022-09-01T08:49:02.754Z,100938.22
2022-09-01T08:51:20.051Z,100934.64
2022-09-01T08:54:14.811Z,100936.88
2022-09-01T08:56:53.085Z,100935.07
2022-09-01T08:59:27.607Z,100935.13
2022-09-01T09:02:47.710Z,100938.35
2022-09-01T09:05:33.119Z,100942.33
2022-09-01T09:08:29.581Z,100941.23
2022-09-01T09:11:11.025Z,100939.88
2022-09-01T09:14:06.396Z,100939.64
2022-09-01T09:16:42.722Z,100940.96
2022-09-01T09:19:18.206Z,100938.10
2022-09-01T09:21:50.833Z,100942.78
2022-09-01T09:24:29.174Z,100941.02
2022-09-01T09:27:11.175Z,100936.86
2022-09-01T09:29:45.493Z,100937.79
2022-09-01T09:32:35.195Z,100939.11
2022-09-01T09:35:22.613Z,100939.21
2022-09-01T09:37:53.709Z,100921.99
2022-09-01T09:40:26.338Z,100930.11
2022-09-01T09:43:07.425Z,100931.59
2022-09-01T09:45:42.005Z,100931.41
2022-09-01T09:48:30.992Z,100931.14
2022-09-01T09:51:20.918Z,100927.44
2022-09-01T09:53:52.018Z,100924.70
2022-09-01T09:56:25.672Z,100921.36
2022-09-01T09:58:56.447Z,100918.64
2022-09-01T10:01:33.856Z,100921.69
2022-09-01T10:04:05.349Z,100916.92
2022-09-01T10:06:41.441Z,100916.19
2022-09-01T10:09:34.121Z,100914.50
2022-09-01T10:12:07.048Z,100912.77
2022-09-01T10:14:53.308Z,100912.31
2022-09-01T10:17:29.851Z,100908.25
2022-09-01T10:20:06.035Z,100914.53
2022-09-01T10:22:38.466Z,100918.81
2022-09-01T10:25:15.104Z,100911.31
2022-09-01T10:27:49.727Z,100911.02
2022-09-01T10:30:22.461Z,100913.30
2022-09-01T10:32:57.514Z,100909.49
2022-09-01T10:35:32.553Z,100906.04
2022-09-01T10:38:07.817Z,100908.34
2022-09-01T10:40:50.478Z,100905.38
2022-09-01T10:43:38.207Z,100907.24
2022-09-01T10:46:42.096Z,100906.77
2022-09-01T10:49:50.814Z,100910.38
2022-09-01T10:52:53.736Z,100906.81
2022-09-01T10:55:32.340Z,100903.31
2022-09-01T11:05:19.478Z,100902.73
2022-09-01T11:08:14.930Z,100903.84
2022-09-01T11:11:01.519Z,100897.54
2022-09-01T11:13:50.175Z,100895.36
2022-09-01T11:16:50.023Z,100890.67
2022-09-01T11:19:44.422Z,100886.23
2022-09-01T11:22:32.817Z,100880.41
2022-09-01T11:25:39.473Z,100879.34
2022-09-01T11:28:36.162Z,100878.27
2022-09-01T11:31:30.146Z,100880.80
2022-09-01T11:34:11.469Z,100878.36
2022-09-01T11:36:52.767Z,100879.82
2022-09-01T11:39:41.061Z,100873.98
2022-09-01T11:42:19.805Z,100871.11
2022-09-01T11:44:57.694Z,100876.93
2022-09-01T11:47:28.649Z,100881.04
2022-09-01T11:50:02.263Z,100883.23
2022-09-01T11:52:36.376Z,100881.63
2022-09-01T11:55:09.403Z,100881.18
2022-09-01T11:57:42.041Z,100887.08
2022-09-01T12:00:26.066Z,100885.83
2022-09-01T12:02:55.674Z,100887.39
2022-09-01T12:05:33.287Z,100881.07
2022-09-01T12:08:06.957Z,100880.76
2022-09-01T12:10:40.438Z,100876.96
2022-09-01T12:13:13.384Z,100877.67
2022-09-01T12:16:00.792Z,100877.55
2022-09-01T12:18:38.415Z,100882.08
2022-09-01T12:21:18.682Z,100876.08
2022-09-01T12:23:49.467Z,100879.02
2022-09-01T12:26:30.861Z,100877.99
2022-09-01T12:29:01.656Z,100870.55
2022-09-01T12:31:33.166Z,100869.62
2022-09-01T12:34:04.771Z,100864.23
2022-09-01T12:36:37.558Z,100858.24
2022-09-01T12:39:34.275Z,100857.58
2022-09-01T12:42:08.618Z,100857.73
2022-09-01T12:44:51.005Z,100855.36
2022-09-01T12:47:50.772Z,100853.70
2022-09-01T12:50:47.159Z,100852.06
2022-09-01T12:53:21.904Z,100854.66
2022-09-01T12:56:17.985Z,100853.23
2022-09-01T12:58:53.931Z,100854.28
2022-09-01T13:01:34.552Z,100846.81
2022-09-01T13:04:28.215Z,100847.55
2022-09-01T13:07:06.243Z,100842.56
2022-09-01T13:09:35.473Z,100844.48
2022-09-01T13:12:20.631Z,100839.73
2022-09-01T13:14:51.386Z,100840.27
2022-09-01T13:17:24.156Z,100838.14
2022-09-01T13:19:54.976Z,100838.52
2022-09-01T13:22:25.685Z,100832.73
2022-09-01T13:24:57.061Z,100832.77
2022-09-01T13:27:28.471Z,100831.83
2022-09-01T13:29:59.769Z,100826.38
2022-09-01T13:32:30.671Z,100827.55
2022-09-01T13:35:01.486Z,100825.48
2022-09-01T13:37:32.880Z,100822.20
2022-09-01T13:40:03.967Z,100825.13
2022-09-01T13:42:35.195Z,100826.27
2022-09-01T13:45:07.468Z,100821.66
2022-09-01T13:48:15.205Z,100825.39
2022-09-01T13:53:27.691Z,100822.47
2022-09-01T13:55:58.739Z,100823.15
2022-09-01T13:58:32.530Z,100819.20
2022-09-01T14:01:05.051Z,100823.95
2022-09-01T14:03:36.001Z,100824.04
2022-09-01T14:06:09.124Z,100825.50
2022-09-01T14:08:40.163Z,100818.33
2022-09-01T14:11:17.081Z,100816.77
2022-09-01T14:13:47.780Z,100821.54
2022-09-01T14:16:18.529Z,100821.16
2022-09-01T14:18:49.321Z,100818.45
2022-09-01T14:21:20.333Z,100823.36
2022-09-01T14:23:50.958Z,100820.51
2022-09-01T14:26:22.511Z,100818.35
2022-09-01T14:29:02.540Z,100820.11
2022-09-01T14:31:36.408Z,100818.70
2022-09-01T14:34:07.394Z,100822.13
2022-09-01T14:36:39.191Z,100821.11
2022-09-01T14:39:10.634Z,100819.52
2022-09-01T14:41:41.566Z,100814.10
2022-09-01T14:44:12.422Z,100816.07
2022-09-01T14:46:43.778Z,100814.66
2022-09-01T14:49:21.615Z,100812.80
2022-09-01T14:54:44.828Z,100807.52
2022-09-01T14:57:37.110Z,100805.67
2022-09-01T15:00:10.248Z,100803.63
2022-09-01T15:02:41.853Z,100805.61
2022-09-01T15:05:14.303Z,100805.71
2022-09-01T15:07:45.681Z,100800.59
2022-09-01T15:10:24.959Z,100801.08
2022-09-01T15:12:58.805Z,100800.98
2022-09-01T15:15:30.479Z,100800.18
2022-09-01T15:18:02.963Z,100804.40
2022-09-01T15:20:46.261Z,100808.73
2022-09-01T15:23:20.065Z,100809.91
2022-09-01T15:25:52.514Z,100812.33
2022-09-01T15:28:23.738Z,100812.46
2022-09-01T15:30:57.115Z,100811.61
2022-09-01T15:33:27.782Z,100819.50
2022-09-01T15:35:58.541Z,100819.55
2022-09-01T15:38:30.766Z,100823.50
2022-09-01T15:41:02.082Z,100821.84
2022-09-01T15:43:33.178Z,100820.95
2022-09-01T15:46:06.827Z,100819.92
2022-09-01T15:48:38.084Z,100818.21
2022-09-01T15:51:32.501Z,100816.48
2022-09-01T15:54:06.323Z,100817.83
2022-09-01T15:56:37.591Z,100813.61
2022-09-01T15:59:09.034Z,100810.89
2022-09-01T16:01:42.554Z,100809.92
2022-09-01T16:04:19.908Z,100810.44
2022-09-01T16:06:51.164Z,100809.27
2022-09-01T16:09:21.967Z,100809.59
2022-09-01T16:11:52.685Z,100805.67
2022-09-01T16:14:23.591Z,100804.85
2022-09-01T16:17:03.323Z,100806.97
2022-09-01T16:19:49.029Z,100806.20
2022-09-01T16:22:27.717Z,100806.02
2022-09-01T16:25:05.704Z,100809.70
2022-09-01T16:27:41.051Z,100810.79
2022-09-01T16:30:16.700Z,100814.46
2022-09-01T16:32:49.268Z,100813.52
2022-09-01T16:35:24.457Z,100811.05
2022-09-01T16:38:11.356Z,100817.23
2022-09-01T16:40:51.417Z,100811.70
2022-09-01T16:43:28.346Z,100814.06
2022-09-01T16:46:09.096Z,100814.64
2022-09-01T16:48:50.314Z,100815.27
2022-09-01T16:51:28.499Z,100813.86
2022-09-01T16:54:13.588Z,100815.47
2022-09-01T16:56:56.386Z,100818.66
2022-09-01T16:59:39.322Z,100818.23
2022-09-01T17:02:25.603Z,100819.98
2022-09-01T17:05:03.650Z,100819.82
2022-09-01T17:07:46.880Z,100820.77
2022-09-01T17:10:26.325Z,100818.89
2022-09-01T17:12:58.923Z,100817.10
2022-09-01T17:15:40.754Z,100817.40
2022-09-01T17:18:22.987Z,100820.44
2022-09-01T17:21:02.045Z,100821.25
2022-09-01T17:23:39.522Z,100820.20
2022-09-01T17:26:18.168Z,100827.68
2022-09-01T17:28:55.355Z,100825.20
2022-09-01T17:31:42.304Z,100831.13
2022-09-01T17:34:26.863Z,100834.52
2022-09-01T17:37:08.927Z,100830.34
2022-09-01T17:39:50.943Z,100830.88
2022-09-01T17:42:36.585Z,100832.64
2022-09-01T17:45:20.289Z,100838.41
2022-09-01T17:48:01.144Z,100841.27
2022-09-01T17:50:42.820Z,100842.85
2022-09-01T17:53:24.093Z,100844.30
2022-09-01T17:56:04.673Z,100846.55
2022-09-01T17:58:50.224Z,100846.91
2022-09-01T18:01:29.373Z,100848.54
2022-09-01T18:04:27.208Z,100847.64
2022-09-01T18:07:06.717Z,100852.98
2022-09-01T18:09:46.391Z,100849.29
2022-09-01T18:12:21.862Z,100850.89
2022-09-01T18:15:00.621Z,100853.37
2022-09-01T18:17:35.630Z,100852.60
2022-09-01T18:20:11.276Z,100855.55
2022-09-01T18:22:48.106Z,100851.58
2022-09-01T18:25:28.311Z,100850.39
2022-09-01T18:27:59.016Z,100856.58
2022-09-01T18:30:51.913Z,100855.63
2022-09-01T18:33:29.238Z,100857.46
2022-09-01T18:36:19.702Z,100858.23
2022-09-01T18:38:57.452Z,100861.30
2022-09-01T18:41:56.780Z,100865.30
2022-09-01T18:44:41.666Z,100862.20
2022-09-01T18:47:15.131Z,100863.90
2022-09-01T18:49:58.784Z,100867.04
2022-09-01T18:52:51.651Z,100864.98
2022-09-01T18:55:29.232Z,100866.48
2022-09-01T18:58:04.700Z,100871.13
2022-09-01T19:00:45.282Z,100870.24
2022-09-01T19:03:27.314Z,100875.14
2022-09-01T19:06:12.592Z,100871.80
2022-09-01T19:09:02.828Z,100866.94
2022-09-01T19:11:39.111Z,100870.11
2022-09-01T19:14:20.010Z,100866.54
2022-09-01T19:17:03.082Z,100869.70
2022-09-01T19:19:44.210Z,100869.15
2022-09-01T19:22:21.666Z,100868.41
2022-09-01T19:25:19.404Z,100868.96
2022-09-01T19:27:57.814Z,100866.41
2022-09-01T19:30:28.541Z,100868.60
2022-09-01T19:33:00.751Z,100867.65
2022-09-01T19:35:30.923Z,100870.85
2022-09-01T19:38:03.350Z,100872.11
2022-09-01T19:40:38.358Z,100868.65
2022-09-01T19:43:13.555Z,100875.02
2022-09-01T19:45:56.963Z,100872.78
2022-09-01T19:48:34.448Z,100875.23
2022-09-01T19:51:14.032Z,100875.65
2022-09-01T19:53:53.572Z,100871.34
2022-09-01T19:56:30.541Z,100876.04
2022-09-01T19:59:14.151Z,100874.63
2022-09-01T20:01:51.161Z,100877.76
2022-09-01T20:04:32.514Z,100877.68
2022-09-01T20:07:04.572Z,100882.13
2022-09-01T20:09:46.050Z,100878.23
2022-09-01T20:12:27.310Z,100878.58
2022-09-01T20:15:12.049Z,100884.48
2022-09-01T20:17:49.358Z,100883.81
2022-09-01T20:20:23.818Z,100887.60
2022-09-01T20:23:04.827Z,100884.88
2022-09-01T20:25:45.857Z,100886.25
2022-09-01T20:28:30.405Z,100891.60
2022-09-01T20:31:06.470Z,100889.71
2022-09-01T20:33:42.341Z,100889.77
2022-09-01T20:36:17.260Z,100892.36
2022-09-01T20:39:13.543Z,100891.55
2022-09-01T20:41:50.013Z,100887.02
2022-09-01T20:44:30.525Z,100884.81
2022-09-01T20:47:01.634Z,100886.77
2022-09-01T20:49:35.143Z,100885.49
2022-09-01T20:52:13.794Z,100886.23
2022-09-01T20:54:53.194Z,100883.06
2022-09-01T20:57:40.637Z,100883.04
2022-09-01T21:00:16.636Z,100885.37
2022-09-01T21:02:56.706Z,100887.02
2022-09-01T21:05:41.841Z,100893.05
2022-09-01T21:08:28.734Z,100896.92
2022-09-01T21:11:16.844Z,100899.21
2022-09-01T21:14:04.879Z,100894.25
2022-09-01T21:16:48.589Z,100899.37
2022-09-01T21:19:26.136Z,100902.73
2022-09-01T21:22:07.015Z,100904.73
2022-09-01T21:24:38.981Z,100902.80
2022-09-01T21:27:16.056Z,100904.40
2022-09-01T21:29:56.628Z,100902.45
2022-09-01T21:32:29.100Z,100897.36
2022-09-01T21:35:00.750Z,100894.13
2022-09-01T21:37:32.002Z,100895.20
2022-09-01T21:40:03.017Z,100890.71
2022-09-01T21:42:39.682Z,100891.41
2022-09-01T21:45:15.079Z,100890.42
2022-09-01T21:47:48.320Z,100891.25
2022-09-01T21:50:22.348Z,100892.86
2022-09-01T21:52:56.429Z,100888.33
2022-09-01T21:55:27.587Z,100890.10
2022-09-01T21:57:58.340Z,100889.89
2022-09-01T22:00:31.565Z,100892.50
2022-09-01T22:03:04.141Z,100890.12
2022-09-01T22:05:36.716Z,100883.96
2022-09-01T22:08:07.803Z,100885.20
2022-09-01T22:10:41.942Z,100884.02
2022-09-01T22:13:13.129Z,100882.13
2022-09-01T22:15:49.601Z,100886.13
2022-09-01T22:18:22.083Z,100884.35
2022-09-01T22:21:01.607Z,100887.46
2022-09-01T22:23:32.627Z,100885.90
2022-09-01T22:26:03.336Z,100887.71
2022-09-01T22:28:34.527Z,100887.13
2022-09-01T22:31:05.511Z,100881.79
2022-09-01T22:33:36.355Z,100878.46
2022-09-01T22:36:08.250Z,100878.79
2022-09-01T22:38:38.945Z,100880.94
2022-09-01T22:41:09.771Z,100880.95
2022-09-01T22:43:40.556Z,100882.15
2022-09-01T22:46:11.531Z,100883.48
2022-09-01T22:48:43.153Z,100883.59
2022-09-01T22:51:14.989Z,100887.29
2022-09-01T22:53:46.984Z,100888.44
2022-09-01T22:56:21.974Z,100887.89
2022-09-01T22:58:55.573Z,100887.95
2022-09-01T23:01:31.555Z,100886.42
2022-09-01T23:04:07.377Z,100887.46
2022-09-01T23:06:41.595Z,100882.73
2022-09-01T23:09:12.422Z,100887.34
2022-09-01T23:11:43.495Z,100887.89
2022-09-01T23:14:14.253Z,100886.34
2022-09-01T23:16:45.349Z,100882.13
2022-09-01T23:19:16.085Z,100882.60
2022-09-01T23:21:48.153Z,100877.38
2022-09-01T23:24:19.966Z,100884.51
2022-09-01T23:26:51.565Z,100883.02
2022-09-01T23:29:22.685Z,100879.79
2022-09-01T23:31:53.608Z,100872.79
2022-09-01T23:34:24.478Z,100871.84
2022-09-01T23:36:55.140Z,100872.23
2022-09-01T23:39:25.925Z,100871.48
2022-09-01T23:41:57.491Z,100875.06
2022-09-01T23:44:28.159Z,100870.53
2022-09-01T23:46:58.808Z,100875.30
2022-09-01T23:49:29.530Z,100874.25
2022-09-01T23:52:00.522Z,100875.76
2022-09-01T23:54:31.223Z,100871.16
2022-09-01T23:57:02.527Z,100873.77
2022-09-01T23:59:33.394Z,100872.89
